x

Culdrose (03809) Weather Station

9:50am - Tue 9th Feb 2016 All times are GMT.

  • Wind
    13mph
  • 空気 Temp 43°f
  • Sea Pressure 989mb
  • Culdrose
  • Culdrose

More Historic Weather Station data

Upgrade to MSW Pro to gain access to the past 30 days of data for over 8000 Wavebouys and Weather Stations around the globe.

Join Pro

Comparision Forecast

View Surf forecast
   
Tue 02/09 9:50am 13
mph
989mb 43f
8:50am 9
mph
989mb 43f
7:50am 10
mph
988mb 41f
6:50am 9
mph
988mb 43f
5:50am 8
mph
989mb 43f
4:50am 7
mph
989mb 43f
3:50am 7
mph
991mb 43f
2:50am 10 23 mph 992mb 45f
1:50am 20 37 mph 994mb 45f
12:50am 13 25 mph 996mb 46f
Mon 02/08 11:50pm 15 30 mph 997mb 46f
10:50pm 15 30 mph 998mb 46f
9:50pm 16 36 mph 998mb 45f
8:50pm 16 36 mph 999mb 45f
7:50pm 20 40 mph 999mb 43f
6:50pm 23 38 mph 999mb 46f
5:50pm 23 43 mph 999mb 45f
4:50pm 21 36 mph 998mb 45f
4:08pm 23 44 mph 998mb 45f
3:50pm 32 46 mph 998mb 46f
2:50pm 32 58 mph 997mb 48f
2:05pm 33 59 mph 997mb 46f
1:50pm 31 55 mph 996mb 48f
12:50pm 36 65 mph 995mb 48f
11:50am 36 62 mph 994mb 48f
10:50am 37 66 mph 993mb 48f
9:50am 39 68 mph 992mb 46f
8:50am 35 63 mph 991mb 46f
7:50am 29 58 mph 990mb 46f
6:50am 25 52 mph 989mb 46f
5:50am 30 59 mph 988mb 46f
4:50am 23 52 mph 988mb 46f
3:50am 37 65 mph 989mb 41f
2:50am 30 56 mph 988mb 43f
1:50am 23 61 mph 989mb 46f
12:50am 33 55 mph 989mb 45f
Sun 02/07 11:50pm 21 41 mph 988mb 48f
10:50pm 25 48 mph 989mb 48f
9:50pm 20 39 mph 988mb 50f
8:50pm 27 59 mph 988mb 48f
7:50pm 20 40 mph 989mb 52f
6:50pm 30 45 mph 989mb 50f
5:50pm 33 54 mph 990mb 50f
4:50pm 33 54 mph 991mb 50f
3:50pm 32 48 mph 993mb 48f
2:50pm 29 46 mph 995mb 46f
1:50pm 25 43 mph 996mb 46f
12:50pm 17 32 mph 997mb 46f
11:50am 14 30 mph 998mb 45f
10:50am 16 33 mph 998mb 46f
9:50am 17 31 mph 997mb 46f
8:50am 17 32 mph 996mb 46f
7:50am 14 29 mph 995mb 45f
6:50am 14 25 mph 995mb 41f
5:50am 20 38 mph 994mb 45f
4:50am 20 39 mph 993mb 45f
3:50am 27 39 mph 992mb 45f
2:50am 20 32 mph 992mb 43f
1:50am 17 32 mph 991mb 37f
12:50am 22
mph
991mb 43f
Sat 02/06 11:50pm 16 38 mph 990mb 45f
10:50pm 14 38 mph 990mb 45f
9:50pm 17 33 mph 989mb 45f
8:50pm 14 31 mph 988mb 46f
7:50pm 12 23 mph 987mb 46f
6:50pm 12 30 mph 987mb 46f
5:50pm 13 27 mph 986mb 45f
4:50pm 17 31 mph 985mb 45f
3:50pm 22 37 mph 985mb 50f
2:50pm 29 47 mph 985mb 50f
1:50pm 25 41 mph 986mb 50f
12:50pm 29 45 mph 988mb 50f
11:50am 25 41 mph 990mb 50f
10:50am 29 55 mph 991mb 52f
9:50am 29 56 mph 992mb 52f
8:50am 32 55 mph 993mb 52f
7:50am 29 45 mph 994mb 52f
6:50am 20 32 mph 996mb 48f
5:50am 16
mph
998mb 50f
4:50am 21 36 mph 1000mb 50f
3:50am 20
mph
1001mb 50f
2:50am 13
mph
1003mb 46f
1:50am 7
mph
1004mb 45f
12:50am 7
mph
1006mb 46f
Fri 02/05 11:50pm 7
mph
1007mb 46f
10:50pm 7
mph
1008mb 48f
9:50pm 17 32 mph 1008mb 48f
8:50pm 24 39 mph 1008mb 50f
7:50pm 23 37 mph 1009mb 50f
6:50pm 21 36 mph 1010mb 48f
5:50pm 29 46 mph 1010mb 50f
4:50pm 29
mph
1010mb 50f
3:50pm 29 41 mph 1011mb 52f
2:50pm 27 39 mph 1012mb 52f
1:50pm 29 40 mph 1014mb 50f
12:50pm 25
mph
1015mb 50f
11:50am 29
mph
1017mb 50f
10:50am 25
mph
1018mb 50f